sensor_id;sensor_type;location;lat;lon;timestamp;P1;durP1;ratioP1;P2;durP2;ratioP2
76403;SDS011;65232;48.358;2.122;2024-02-15T00:00:00;5.28;;;3.10;;
76403;SDS011;65232;48.358;2.122;2024-02-15T00:00:29;4.30;;;2.75;;
76403;SDS011;65232;48.358;2.122;2024-02-15T00:00:54;5.65;;;2.85;;
76403;SDS011;65232;48.358;2.122;2024-02-15T00:01:20;4.50;;;2.78;;
76403;SDS011;65232;48.358;2.122;2024-02-15T00:01:45;7.30;;;2.83;;
76403;SDS011;65232;48.358;2.122;2024-02-15T00:02:10;4.85;;;2.90;;
76403;SDS011;65232;48.358;2.122;2024-02-15T00:02:36;6.22;;;2.90;;
76403;SDS011;65232;48.358;2.122;2024-02-15T00:03:01;4.72;;;2.65;;
76403;SDS011;65232;48.358;2.122;2024-02-15T00:03:27;4.68;;;2.80;;
76403;SDS011;65232;48.358;2.122;2024-02-15T00:03:52;5.53;;;2.60;;
76403;SDS011;65232;48.358;2.122;2024-02-15T00:04:18;6.15;;;2.50;;
76403;SDS011;65232;48.358;2.122;2024-02-15T00:04:44;4.88;;;2.63;;
76403;SDS011;65232;48.358;2.122;2024-02-15T00:05:10;7.15;;;2.60;;
76403;SDS011;65232;48.358;2.122;2024-02-15T00:05:36;8.80;;;3.28;;
76403;SDS011;65232;48.358;2.122;2024-02-15T00:06:01;6.80;;;2.63;;
76403;SDS011;65232;48.358;2.122;2024-02-15T00:06:27;6.05;;;2.70;;
76403;SDS011;65232;48.358;2.122;2024-02-15T00:06:52;5.10;;;2.78;;
76403;SDS011;65232;48.358;2.122;2024-02-15T00:07:18;5.03;;;2.60;;
76403;SDS011;65232;48.358;2.122;2024-02-15T00:07:47;3.70;;;2.55;;
76403;SDS011;65232;48.358;2.122;2024-02-15T00:08:14;5.05;;;2.80;;
76403;SDS011;65232;48.358;2.122;2024-02-15T00:08:40;5.32;;;2.97;;
76403;SDS011;65232;48.358;2.122;2024-02-15T00:09:05;5.53;;;2.47;;
76403;SDS011;65232;48.358;2.122;2024-02-15T00:09:31;3.55;;;2.60;;
76403;SDS011;65232;48.358;2.122;2024-02-15T00:09:56;3.90;;;2.25;;
76403;SDS011;65232;48.358;2.122;2024-02-15T00:10:24;4.72;;;2.35;;
76403;SDS011;65232;48.358;2.122;2024-02-15T00:10:50;4.75;;;2.50;;
76403;SDS011;65232;48.358;2.122;2024-02-15T00:11:15;4.95;;;2.50;;
76403;SDS011;65232;48.358;2.122;2024-02-15T00:11:40;4.57;;;2.60;;
76403;SDS011;65232;48.358;2.122;2024-02-15T00:12:06;4.60;;;2.60;;
76403;SDS011;65232;48.358;2.122;2024-02-15T00:12:31;4.53;;;2.30;;
76403;SDS011;65232;48.358;2.122;2024-02-15T00:12:57;5.90;;;2.45;;
76403;SDS011;65232;48.358;2.122;2024-02-15T00:13:23;5.68;;;2.50;;
76403;SDS011;65232;48.358;2.122;2024-02-15T00:13:49;6.20;;;2.50;;
76403;SDS011;65232;48.358;2.122;2024-02-15T00:14:14;5.00;;;2.47;;
76403;SDS011;65232;48.358;2.122;2024-02-15T00:14:39;9.93;;;4.88;;
76403;SDS011;65232;48.358;2.122;2024-02-15T00:15:05;8.52;;;4.65;;
76403;SDS011;65232;48.358;2.122;2024-02-15T00:15:30;5.50;;;2.97;;
76403;SDS011;65232;48.358;2.122;2024-02-15T00:15:56;5.15;;;2.53;;
76403;SDS011;65232;48.358;2.122;2024-02-15T00:16:21;7.15;;;2.70;;
76403;SDS011;65232;48.358;2.122;2024-02-15T00:16:46;7.60;;;3.17;;
76403;SDS011;65232;48.358;2.122;2024-02-15T00:17:12;4.72;;;2.50;;
76403;SDS011;65232;48.358;2.122;2024-02-15T00:17:38;4.60;;;2.45;;
76403;SDS011;65232;48.358;2.122;2024-02-15T00:18:03;5.20;;;3.00;;
76403;SDS011;65232;48.358;2.122;2024-02-15T00:18:29;5.93;;;2.95;;
76403;SDS011;65232;48.358;2.122;2024-02-15T00:18:56;6.38;;;2.67;;
76403;SDS011;65232;48.358;2.122;2024-02-15T00:19:21;4.85;;;2.50;;
76403;SDS011;65232;48.358;2.122;2024-02-15T00:19:47;4.97;;;2.70;;
76403;SDS011;65232;48.358;2.122;2024-02-15T00:20:12;3.92;;;2.20;;
76403;SDS011;65232;48.358;2.122;2024-02-15T00:20:38;5.63;;;2.75;;
76403;SDS011;65232;48.358;2.122;2024-02-15T00:21:04;5.45;;;2.60;;
76403;SDS011;65232;48.358;2.122;2024-02-15T00:21:29;8.38;;;2.65;;
76403;SDS011;65232;48.358;2.122;2024-02-15T00:21:54;3.40;;;2.25;;
76403;SDS011;65232;48.358;2.122;2024-02-15T00:22:21;5.72;;;2.72;;
76403;SDS011;65232;48.358;2.122;2024-02-15T00:22:46;5.32;;;2.58;;
76403;SDS011;65232;48.358;2.122;2024-02-15T00:23:13;5.05;;;2.60;;
76403;SDS011;65232;48.358;2.122;2024-02-15T00:23:40;4.05;;;2.53;;
76403;SDS011;65232;48.358;2.122;2024-02-15T00:24:06;5.18;;;2.70;;
76403;SDS011;65232;48.358;2.122;2024-02-15T00:24:32;4.32;;;2.22;;
76403;SDS011;65232;48.358;2.122;2024-02-15T00:24:57;4.55;;;2.58;;
76403;SDS011;65232;48.358;2.122;2024-02-15T00:25:24;4.47;;;2.50;;
76403;SDS011;65232;48.358;2.122;2024-02-15T00:25:51;5.82;;;2.42;;
76403;SDS011;65232;48.358;2.122;2024-02-15T00:26:16;7.22;;;3.17;;
76403;SDS011;65232;48.358;2.122;2024-02-15T00:26:41;3.92;;;2.65;;
76403;SDS011;65232;48.358;2.122;2024-02-15T00:27:07;6.20;;;2.67;;
76403;SDS011;65232;48.358;2.122;2024-02-15T00:27:33;3.88;;;2.70;;
76403;SDS011;65232;48.358;2.122;2024-02-15T00:28:26;3.30;;;2.42;;
76403;SDS011;65232;48.358;2.122;2024-02-15T00:28:52;4.20;;;2.25;;
76403;SDS011;65232;48.358;2.122;2024-02-15T00:29:17;3.85;;;2.30;;
76403;SDS011;65232;48.358;2.122;2024-02-15T00:29:43;4.18;;;2.40;;
76403;SDS011;65232;48.358;2.122;2024-02-15T00:30:08;4.22;;;2.70;;
76403;SDS011;65232;48.358;2.122;2024-02-15T00:30:34;4.57;;;3.00;;
76403;SDS011;65232;48.358;2.122;2024-02-15T00:30:59;6.03;;;3.10;;
76403;SDS011;65232;48.358;2.122;2024-02-15T00:31:25;3.65;;;2.45;;
76403;SDS011;65232;48.358;2.122;2024-02-15T00:31:50;5.20;;;2.90;;
76403;SDS011;65232;48.358;2.122;2024-02-15T00:32:16;4.90;;;3.00;;
76403;SDS011;65232;48.358;2.122;2024-02-15T00:32:41;4.93;;;2.70;;
76403;SDS011;65232;48.358;2.122;2024-02-15T00:33:06;5.63;;;2.63;;
76403;SDS011;65232;48.358;2.122;2024-02-15T00:33:32;7.93;;;3.25;;
76403;SDS011;65232;48.358;2.122;2024-02-15T00:33:58;10.43;;;5.90;;
76403;SDS011;65232;48.358;2.122;2024-02-15T00:34:51;10.73;;;5.63;;
76403;SDS011;65232;48.358;2.122;2024-02-15T00:35:16;9.20;;;5.05;;
76403;SDS011;65232;48.358;2.122;2024-02-15T00:35:42;9.23;;;4.78;;
76403;SDS011;65232;48.358;2.122;2024-02-15T00:36:07;10.68;;;5.13;;
76403;SDS011;65232;48.358;2.122;2024-02-15T00:36:33;10.30;;;5.53;;
76403;SDS011;65232;48.358;2.122;2024-02-15T00:36:58;9.02;;;4.90;;
76403;SDS011;65232;48.358;2.122;2024-02-15T00:37:24;8.15;;;4.78;;
76403;SDS011;65232;48.358;2.122;2024-02-15T00:37:49;10.43;;;5.57;;
76403;SDS011;65232;48.358;2.122;2024-02-15T00:38:15;9.02;;;5.97;;
76403;SDS011;65232;48.358;2.122;2024-02-15T00:38:41;13.18;;;5.70;;
76403;SDS011;65232;48.358;2.122;2024-02-15T00:39:08;9.60;;;5.43;;
76403;SDS011;65232;48.358;2.122;2024-02-15T00:39:33;12.27;;;5.78;;
76403;SDS011;65232;48.358;2.122;2024-02-15T00:39:58;10.93;;;5.75;;
76403;SDS011;65232;48.358;2.122;2024-02-15T00:40:24;12.15;;;5.78;;
76403;SDS011;65232;48.358;2.122;2024-02-15T00:40:49;13.80;;;6.40;;
76403;SDS011;65232;48.358;2.122;2024-02-15T00:41:15;12.27;;;5.68;;
76403;SDS011;65232;48.358;2.122;2024-02-15T00:41:40;11.50;;;5.93;;
76403;SDS011;65232;48.358;2.122;2024-02-15T00:42:06;10.13;;;5.65;;
76403;SDS011;65232;48.358;2.122;2024-02-15T00:42:34;9.68;;;5.50;;
76403;SDS011;65232;48.358;2.122;2024-02-15T00:42:59;9.75;;;5.03;;
76403;SDS011;65232;48.358;2.122;2024-02-15T00:43:26;10.48;;;5.97;;
76403;SDS011;65232;48.358;2.122;2024-02-15T00:43:52;10.10;;;5.93;;
76403;SDS011;65232;48.358;2.122;2024-02-15T00:44:18;11.77;;;5.40;;
76403;SDS011;65232;48.358;2.122;2024-02-15T00:44:43;8.57;;;5.20;;
76403;SDS011;65232;48.358;2.122;2024-02-15T00:45:09;10.13;;;5.20;;
76403;SDS011;65232;48.358;2.122;2024-02-15T00:45:34;9.35;;;5.30;;
76403;SDS011;65232;48.358;2.122;2024-02-15T00:46:00;7.72;;;5.30;;
76403;SDS011;65232;48.358;2.122;2024-02-15T00:46:25;9.73;;;4.72;;
76403;SDS011;65232;48.358;2.122;2024-02-15T00:46:54;9.25;;;5.28;;
76403;SDS011;65232;48.358;2.122;2024-02-15T00:47:19;6.65;;;4.93;;
76403;SDS011;65232;48.358;2.122;2024-02-15T00:47:45;8.48;;;5.25;;
76403;SDS011;65232;48.358;2.122;2024-02-15T00:48:11;7.00;;;4.63;;
76403;SDS011;65232;48.358;2.122;2024-02-15T00:48:37;8.18;;;4.70;;
76403;SDS011;65232;48.358;2.122;2024-02-15T00:49:03;8.38;;;4.45;;
76403;SDS011;65232;48.358;2.122;2024-02-15T00:49:31;6.95;;;3.90;;
76403;SDS011;65232;48.358;2.122;2024-02-15T00:49:57;5.07;;;3.00;;
76403;SDS011;65232;48.358;2.122;2024-02-15T00:50:23;6.80;;;3.80;;
76403;SDS011;65232;48.358;2.122;2024-02-15T00:50:48;6.30;;;3.85;;
76403;SDS011;65232;48.358;2.122;2024-02-15T00:51:14;7.18;;;3.97;;
76403;SDS011;65232;48.358;2.122;2024-02-15T00:51:39;6.75;;;4.00;;
76403;SDS011;65232;48.358;2.122;2024-02-15T00:52:04;6.25;;;4.00;;
76403;SDS011;65232;48.358;2.122;2024-02-15T00:52:30;6.22;;;4.18;;
76403;SDS011;65232;48.358;2.122;2024-02-15T00:52:56;7.32;;;3.50;;
76403;SDS011;65232;48.358;2.122;2024-02-15T00:53:21;8.13;;;3.50;;
76403;SDS011;65232;48.358;2.122;2024-02-15T00:53:47;6.40;;;3.88;;
76403;SDS011;65232;48.358;2.122;2024-02-15T00:54:12;5.25;;;3.00;;
76403;SDS011;65232;48.358;2.122;2024-02-15T00:54:38;7.00;;;3.55;;
76403;SDS011;65232;48.358;2.122;2024-02-15T00:55:03;6.53;;;3.40;;
76403;SDS011;65232;48.358;2.122;2024-02-15T00:55:29;6.60;;;3.10;;
76403;SDS011;65232;48.358;2.122;2024-02-15T00:55:55;6.70;;;3.15;;
76403;SDS011;65232;48.358;2.122;2024-02-15T00:56:21;7.32;;;3.30;;
76403;SDS011;65232;48.358;2.122;2024-02-15T00:56:47;6.13;;;3.15;;
76403;SDS011;65232;48.358;2.122;2024-02-15T00:57:12;7.95;;;3.15;;
76403;SDS011;65232;48.358;2.122;2024-02-15T00:57:38;5.25;;;2.88;;
76403;SDS011;65232;48.358;2.122;2024-02-15T00:58:03;6.47;;;2.20;;
76403;SDS011;65232;48.358;2.122;2024-02-15T00:58:29;6.10;;;2.58;;
76403;SDS011;65232;48.358;2.122;2024-02-15T00:58:55;4.28;;;1.95;;
76403;SDS011;65232;48.358;2.122;2024-02-15T00:59:20;5.32;;;2.50;;
76403;SDS011;65232;48.358;2.122;2024-02-15T00:59:46;4.57;;;2.30;;
76403;SDS011;65232;48.358;2.122;2024-02-15T01:00:11;3.47;;;2.40;;
76403;SDS011;65232;48.358;2.122;2024-02-15T01:00:38;5.32;;;2.30;;
76403;SDS011;65232;48.358;2.122;2024-02-15T01:01:03;6.28;;;2.67;;
76403;SDS011;65232;48.358;2.122;2024-02-15T01:01:28;7.10;;;2.55;;
76403;SDS011;65232;48.358;2.122;2024-02-15T01:01:54;7.20;;;2.20;;
76403;SDS011;65232;48.358;2.122;2024-02-15T01:02:19;5.00;;;2.17;;
76403;SDS011;65232;48.358;2.122;2024-02-15T01:02:45;5.20;;;2.53;;
76403;SDS011;65232;48.358;2.122;2024-02-15T01:03:10;4.68;;;2.50;;
76403;SDS011;65232;48.358;2.122;2024-02-15T01:03:36;2.80;;;1.98;;
76403;SDS011;65232;48.358;2.122;2024-02-15T01:04:03;4.28;;;2.70;;
76403;SDS011;65232;48.358;2.122;2024-02-15T01:04:30;4.63;;;2.15;;
76403;SDS011;65232;48.358;2.122;2024-02-15T01:04:55;6.28;;;2.53;;
76403;SDS011;65232;48.358;2.122;2024-02-15T01:05:22;4.03;;;2.22;;
76403;SDS011;65232;48.358;2.122;2024-02-15T01:05:49;4.45;;;2.40;;
76403;SDS011;65232;48.358;2.122;2024-02-15T01:06:14;4.93;;;2.30;;
76403;SDS011;65232;48.358;2.122;2024-02-15T01:06:40;4.85;;;2.40;;
76403;SDS011;65232;48.358;2.122;2024-02-15T01:07:07;6.40;;;2.50;;
76403;SDS011;65232;48.358;2.122;2024-02-15T01:07:33;3.63;;;2.10;;
76403;SDS011;65232;48.358;2.122;2024-02-15T01:07:58;3.50;;;2.05;;
76403;SDS011;65232;48.358;2.122;2024-02-15T01:08:23;5.82;;;2.47;;
76403;SDS011;65232;48.358;2.122;2024-02-15T01:08:49;3.88;;;2.03;;
76403;SDS011;65232;48.358;2.122;2024-02-15T01:09:14;5.90;;;2.10;;
76403;SDS011;65232;48.358;2.122;2024-02-15T01:09:40;4.30;;;2.30;;
76403;SDS011;65232;48.358;2.122;2024-02-15T01:10:05;4.80;;;2.20;;
76403;SDS011;65232;48.358;2.122;2024-02-15T01:10:31;5.22;;;2.10;;
76403;SDS011;65232;48.358;2.122;2024-02-15T01:10:56;3.83;;;2.30;;
76403;SDS011;65232;48.358;2.122;2024-02-15T01:11:22;3.45;;;1.95;;
76403;SDS011;65232;48.358;2.122;2024-02-15T01:11:48;6.38;;;2.22;;
76403;SDS011;65232;48.358;2.122;2024-02-15T01:12:14;4.38;;;2.15;;
76403;SDS011;65232;48.358;2.122;2024-02-15T01:12:39;4.25;;;2.15;;
76403;SDS011;65232;48.358;2.122;2024-02-15T01:13:05;6.13;;;2.17;;
76403;SDS011;65232;48.358;2.122;2024-02-15T01:13:30;4.50;;;2.15;;
76403;SDS011;65232;48.358;2.122;2024-02-15T01:13:55;4.53;;;2.38;;
76403;SDS011;65232;48.358;2.122;2024-02-15T01:14:21;5.43;;;2.92;;
76403;SDS011;65232;48.358;2.122;2024-02-15T01:14:47;6.18;;;2.53;;
76403;SDS011;65232;48.358;2.122;2024-02-15T01:15:12;4.38;;;2.28;;
76403;SDS011;65232;48.358;2.122;2024-02-15T01:15:38;5.90;;;2.35;;
76403;SDS011;65232;48.358;2.122;2024-02-15T01:16:06;3.67;;;2.03;;
76403;SDS011;65232;48.358;2.122;2024-02-15T01:16:57;4.97;;;2.22;;
76403;SDS011;65232;48.358;2.122;2024-02-15T01:17:23;5.45;;;2.20;;
76403;SDS011;65232;48.358;2.122;2024-02-15T01:17:48;3.85;;;2.13;;
76403;SDS011;65232;48.358;2.122;2024-02-15T01:18:14;4.15;;;2.50;;
76403;SDS011;65232;48.358;2.122;2024-02-15T01:18:39;3.95;;;2.65;;
76403;SDS011;65232;48.358;2.122;2024-02-15T01:19:05;4.82;;;2.22;;
76403;SDS011;65232;48.358;2.122;2024-02-15T01:19:30;6.43;;;2.33;;
76403;SDS011;65232;48.358;2.122;2024-02-15T01:19:55;5.55;;;2.33;;
76403;SDS011;65232;48.358;2.122;2024-02-15T01:20:24;3.80;;;2.20;;
76403;SDS011;65232;48.358;2.122;2024-02-15T01:20:49;5.90;;;2.20;;
76403;SDS011;65232;48.358;2.122;2024-02-15T01:21:15;6.53;;;2.30;;
76403;SDS011;65232;48.358;2.122;2024-02-15T01:21:40;6.63;;;1.98;;
76403;SDS011;65232;48.358;2.122;2024-02-15T01:22:08;5.82;;;2.15;;
76403;SDS011;65232;48.358;2.122;2024-02-15T01:22:34;4.00;;;2.13;;
76403;SDS011;65232;48.358;2.122;2024-02-15T01:23:00;3.90;;;2.13;;
76403;SDS011;65232;48.358;2.122;2024-02-15T01:23:25;3.97;;;2.03;;
76403;SDS011;65232;48.358;2.122;2024-02-15T01:23:51;5.43;;;2.10;;
76403;SDS011;65232;48.358;2.122;2024-02-15T01:24:18;5.47;;;2.00;;
76403;SDS011;65232;48.358;2.122;2024-02-15T01:24:45;3.70;;;1.95;;
76403;SDS011;65232;48.358;2.122;2024-02-15T01:25:10;3.88;;;1.95;;
76403;SDS011;65232;48.358;2.122;2024-02-15T01:25:36;4.82;;;2.33;;
76403;SDS011;65232;48.358;2.122;2024-02-15T01:26:01;5.50;;;2.67;;
76403;SDS011;65232;48.358;2.122;2024-02-15T01:26:27;7.78;;;3.97;;
76403;SDS011;65232;48.358;2.122;2024-02-15T01:26:52;5.82;;;2.13;;
76403;SDS011;65232;48.358;2.122;2024-02-15T01:27:18;4.25;;;2.47;;
76403;SDS011;65232;48.358;2.122;2024-02-15T01:27:43;5.10;;;2.70;;
76403;SDS011;65232;48.358;2.122;2024-02-15T01:28:09;4.43;;;2.33;;
76403;SDS011;65232;48.358;2.122;2024-02-15T01:29:00;3.60;;;2.22;;
76403;SDS011;65232;48.358;2.122;2024-02-15T01:29:28;3.40;;;2.45;;
76403;SDS011;65232;48.358;2.122;2024-02-15T01:29:53;6.20;;;2.70;;
76403;SDS011;65232;48.358;2.122;2024-02-15T01:30:19;7.32;;;3.42;;
76403;SDS011;65232;48.358;2.122;2024-02-15T01:30:44;8.70;;;4.00;;
76403;SDS011;65232;48.358;2.122;2024-02-15T01:31:36;4.43;;;2.45;;
76403;SDS011;65232;48.358;2.122;2024-02-15T01:32:01;3.75;;;2.25;;
76403;SDS011;65232;48.358;2.122;2024-02-15T01:32:27;4.35;;;2.53;;
76403;SDS011;65232;48.358;2.122;2024-02-15T01:32:52;6.03;;;2.60;;
76403;SDS011;65232;48.358;2.122;2024-02-15T01:33:18;6.15;;;3.35;;
76403;SDS011;65232;48.358;2.122;2024-02-15T01:33:43;6.05;;;3.10;;
76403;SDS011;65232;48.358;2.122;2024-02-15T01:34:12;4.82;;;2.35;;
76403;SDS011;65232;48.358;2.122;2024-02-15T01:34:38;6.28;;;2.33;;
76403;SDS011;65232;48.358;2.122;2024-02-15T01:35:03;6.13;;;2.50;;
76403;SDS011;65232;48.358;2.122;2024-02-15T01:35:29;6.03;;;2.97;;
76403;SDS011;65232;48.358;2.122;2024-02-15T01:35:54;6.32;;;2.63;;
76403;SDS011;65232;48.358;2.122;2024-02-15T01:36:20;7.38;;;3.25;;
76403;SDS011;65232;48.358;2.122;2024-02-15T01:36:47;7.55;;;2.58;;
76403;SDS011;65232;48.358;2.122;2024-02-15T01:37:13;8.25;;;3.33;;
76403;SDS011;65232;48.358;2.122;2024-02-15T01:37:38;8.18;;;2.75;;
76403;SDS011;65232;48.358;2.122;2024-02-15T01:38:04;3.97;;;2.38;;
76403;SDS011;65232;48.358;2.122;2024-02-15T01:38:30;8.60;;;2.55;;
76403;SDS011;65232;48.358;2.122;2024-02-15T01:38:55;5.47;;;2.38;;
76403;SDS011;65232;48.358;2.122;2024-02-15T01:39:21;3.80;;;2.30;;
76403;SDS011;65232;48.358;2.122;2024-02-15T01:39:46;4.70;;;2.40;;
76403;SDS011;65232;48.358;2.122;2024-02-15T01:40:12;6.32;;;2.60;;
76403;SDS011;65232;48.358;2.122;2024-02-15T01:40:40;7.18;;;2.22;;
76403;SDS011;65232;48.358;2.122;2024-02-15T01:41:05;5.25;;;1.92;;
76403;SDS011;65232;48.358;2.122;2024-02-15T01:41:31;5.85;;;2.38;;
76403;SDS011;65232;48.358;2.122;2024-02-15T01:42:24;5.25;;;2.15;;
76403;SDS011;65232;48.358;2.122;2024-02-15T01:42:49;3.85;;;2.30;;
76403;SDS011;65232;48.358;2.122;2024-02-15T01:43:14;4.45;;;2.20;;
76403;SDS011;65232;48.358;2.122;2024-02-15T01:43:43;4.72;;;2.17;;
76403;SDS011;65232;48.358;2.122;2024-02-15T01:44:12;8.23;;;2.08;;
76403;SDS011;65232;48.358;2.122;2024-02-15T01:44:38;3.78;;;1.75;;
76403;SDS011;65232;48.358;2.122;2024-02-15T01:45:05;4.55;;;2.33;;
76403;SDS011;65232;48.358;2.122;2024-02-15T01:45:56;4.70;;;2.20;;
76403;SDS011;65232;48.358;2.122;2024-02-15T01:46:24;3.22;;;2.05;;
76403;SDS011;65232;48.358;2.122;2024-02-15T01:46:50;3.15;;;1.73;;
76403;SDS011;65232;48.358;2.122;2024-02-15T01:47:19;3.85;;;1.83;;
76403;SDS011;65232;48.358;2.122;2024-02-15T01:47:45;2.70;;;1.80;;
76403;SDS011;65232;48.358;2.122;2024-02-15T01:48:10;3.13;;;1.90;;
76403;SDS011;65232;48.358;2.122;2024-02-15T01:48:37;3.38;;;1.65;;
76403;SDS011;65232;48.358;2.122;2024-02-15T01:49:05;3.88;;;1.83;;
76403;SDS011;65232;48.358;2.122;2024-02-15T01:49:32;4.47;;;1.70;;
76403;SDS011;65232;48.358;2.122;2024-02-15T01:49:58;5.43;;;2.10;;
76403;SDS011;65232;48.358;2.122;2024-02-15T01:50:24;3.17;;;1.70;;
76403;SDS011;65232;48.358;2.122;2024-02-15T01:51:16;3.38;;;1.63;;
76403;SDS011;65232;48.358;2.122;2024-02-15T01:51:43;3.15;;;1.77;;
76403;SDS011;65232;48.358;2.122;2024-02-15T01:52:09;4.13;;;1.70;;
76403;SDS011;65232;48.358;2.122;2024-02-15T01:52:34;3.25;;;1.80;;
76403;SDS011;65232;48.358;2.122;2024-02-15T01:53:01;4.40;;;1.88;;
76403;SDS011;65232;48.358;2.122;2024-02-15T01:53:29;4.40;;;1.73;;
76403;SDS011;65232;48.358;2.122;2024-02-15T01:53:55;3.65;;;1.70;;
76403;SDS011;65232;48.358;2.122;2024-02-15T01:54:20;4.55;;;1.90;;
76403;SDS011;65232;48.358;2.122;2024-02-15T01:54:46;4.43;;;1.80;;
76403;SDS011;65232;48.358;2.122;2024-02-15T01:55:11;4.90;;;2.00;;
76403;SDS011;65232;48.358;2.122;2024-02-15T01:55:37;5.10;;;1.98;;
76403;SDS011;65232;48.358;2.122;2024-02-15T01:56:03;3.30;;;1.52;;
76403;SDS011;65232;48.358;2.122;2024-02-15T01:56:28;4.68;;;1.98;;
76403;SDS011;65232;48.358;2.122;2024-02-15T01:56:55;4.05;;;1.67;;
76403;SDS011;65232;48.358;2.122;2024-02-15T01:57:20;3.60;;;2.00;;
76403;SDS011;65232;48.358;2.122;2024-02-15T01:57:47;5.75;;;1.95;;
76403;SDS011;65232;48.358;2.122;2024-02-15T01:58:13;3.97;;;1.90;;
76403;SDS011;65232;48.358;2.122;2024-02-15T01:58:42;2.85;;;1.63;;
76403;SDS011;65232;48.358;2.122;2024-02-15T01:59:11;2.97;;;1.60;;
76403;SDS011;65232;48.358;2.122;2024-02-15T01:59:39;3.65;;;2.00;;
76403;SDS011;65232;48.358;2.122;2024-02-15T02:00:06;3.92;;;2.10;;
76403;SDS011;65232;48.358;2.122;2024-02-15T02:00:34;4.82;;;1.92;;
76403;SDS011;65232;48.358;2.122;2024-02-15T02:01:01;3.58;;;1.65;;
76403;SDS011;65232;48.358;2.122;2024-02-15T02:01:27;5.30;;;1.80;;
76403;SDS011;65232;48.358;2.122;2024-02-15T02:01:53;3.13;;;1.65;;
76403;SDS011;65232;48.358;2.122;2024-02-15T02:02:19;4.10;;;2.25;;
76403;SDS011;65232;48.358;2.122;2024-02-15T02:02:45;4.15;;;2.00;;
76403;SDS011;65232;48.358;2.122;2024-02-15T02:03:14;5.55;;;2.13;;
76403;SDS011;65232;48.358;2.122;2024-02-15T02:03:39;2.67;;;2.00;;
76403;SDS011;65232;48.358;2.122;2024-02-15T02:04:05;5.72;;;2.05;;
76403;SDS011;65232;48.358;2.122;2024-02-15T02:04:30;2.55;;;1.83;;
76403;SDS011;65232;48.358;2.122;2024-02-15T02:04:56;4.97;;;2.22;;
76403;SDS011;65232;48.358;2.122;2024-02-15T02:05:22;4.43;;;2.00;;
76403;SDS011;65232;48.358;2.122;2024-02-15T02:05:48;4.07;;;2.00;;
76403;SDS011;65232;48.358;2.122;2024-02-15T02:06:13;3.72;;;2.10;;
76403;SDS011;65232;48.358;2.122;2024-02-15T02:06:39;3.75;;;2.25;;
76403;SDS011;65232;48.358;2.122;2024-02-15T02:07:04;5.28;;;2.30;;
76403;SDS011;65232;48.358;2.122;2024-02-15T02:07:30;3.97;;;2.20;;
76403;SDS011;65232;48.358;2.122;2024-02-15T02:07:55;5.90;;;2.22;;
76403;SDS011;65232;48.358;2.122;2024-02-15T02:08:24;5.30;;;1.90;;
76403;SDS011;65232;48.358;2.122;2024-02-15T02:08:49;3.67;;;1.80;;
76403;SDS011;65232;48.358;2.122;2024-02-15T02:09:15;5.03;;;2.20;;
76403;SDS011;65232;48.358;2.122;2024-02-15T02:09:40;3.08;;;1.70;;
76403;SDS011;65232;48.358;2.122;2024-02-15T02:10:07;4.18;;;1.95;;
76403;SDS011;65232;48.358;2.122;2024-02-15T02:10:34;5.28;;;2.47;;
76403;SDS011;65232;48.358;2.122;2024-02-15T02:10:59;5.97;;;1.95;;
76403;SDS011;65232;48.358;2.122;2024-02-15T02:11:26;5.20;;;2.00;;
76403;SDS011;65232;48.358;2.122;2024-02-15T02:11:54;5.25;;;2.20;;
76403;SDS011;65232;48.358;2.122;2024-02-15T02:12:19;4.75;;;1.98;;
76403;SDS011;65232;48.358;2.122;2024-02-15T02:12:45;5.68;;;1.90;;
76403;SDS011;65232;48.358;2.122;2024-02-15T02:13:10;10.05;;;2.33;;
76403;SDS011;65232;48.358;2.122;2024-02-15T02:13:36;3.97;;;2.53;;
76403;SDS011;65232;48.358;2.122;2024-02-15T02:14:02;5.55;;;2.00;;
76403;SDS011;65232;48.358;2.122;2024-02-15T02:14:27;4.53;;;2.00;;
76403;SDS011;65232;48.358;2.122;2024-02-15T02:14:55;3.67;;;2.38;;
76403;SDS011;65232;48.358;2.122;2024-02-15T02:15:20;3.95;;;2.00;;
76403;SDS011;65232;48.358;2.122;2024-02-15T02:15:46;5.97;;;2.47;;
76403;SDS011;65232;48.358;2.122;2024-02-15T02:16:27;8.23;;;2.22;;
76403;SDS011;65232;48.358;2.122;2024-02-15T02:16:53;3.28;;;1.77;;
76403;SDS011;65232;48.358;2.122;2024-02-15T02:17:49;5.10;;;2.50;;
76403;SDS011;65232;48.358;2.122;2024-02-15T02:18:16;5.80;;;2.55;;
76403;SDS011;65232;48.358;2.122;2024-02-15T02:18:41;3.55;;;1.98;;
76403;SDS011;65232;48.358;2.122;2024-02-15T02:19:06;2.95;;;1.75;;
76403;SDS011;65232;48.358;2.122;2024-02-15T02:19:34;4.28;;;1.80;;
76403;SDS011;65232;48.358;2.122;2024-02-15T02:20:03;5.93;;;2.20;;
76403;SDS011;65232;48.358;2.122;2024-02-15T02:20:33;3.47;;;1.70;;
76403;SDS011;65232;48.358;2.122;2024-02-15T02:20:59;4.30;;;1.83;;
76403;SDS011;65232;48.358;2.122;2024-02-15T02:21:25;3.60;;;1.90;;
76403;SDS011;65232;48.358;2.122;2024-02-15T02:21:51;7.47;;;1.98;;
76403;SDS011;65232;48.358;2.122;2024-02-15T02:22:16;4.65;;;2.00;;
76403;SDS011;65232;48.358;2.122;2024-02-15T02:22:47;4.38;;;2.20;;
76403;SDS011;65232;48.358;2.122;2024-02-15T02:23:16;3.78;;;1.83;;
76403;SDS011;65232;48.358;2.122;2024-02-15T02:23:43;3.97;;;1.75;;
76403;SDS011;65232;48.358;2.122;2024-02-15T02:24:17;2.90;;;1.90;;
76403;SDS011;65232;48.358;2.122;2024-02-15T02:25:00;5.15;;;1.70;;
76403;SDS011;65232;48.358;2.122;2024-02-15T02:25:35;3.70;;;2.03;;
76403;SDS011;65232;48.358;2.122;2024-02-15T02:26:00;4.25;;;1.73;;
76403;SDS011;65232;48.358;2.122;2024-02-15T02:26:26;2.80;;;1.60;;
76403;SDS011;65232;48.358;2.122;2024-02-15T02:26:51;6.13;;;2.38;;
76403;SDS011;65232;48.358;2.122;2024-02-15T02:27:18;2.47;;;1.67;;
76403;SDS011;65232;48.358;2.122;2024-02-15T02:27:44;3.10;;;1.85;;
76403;SDS011;65232;48.358;2.122;2024-02-15T02:28:10;5.53;;;1.98;;
76403;SDS011;65232;48.358;2.122;2024-02-15T02:28:36;5.22;;;1.98;;
76403;SDS011;65232;48.358;2.122;2024-02-15T02:29:02;3.63;;;1.98;;
76403;SDS011;65232;48.358;2.122;2024-02-15T02:29:30;3.50;;;1.70;;
76403;SDS011;65232;48.358;2.122;2024-02-15T02:29:56;8.27;;;1.90;;
76403;SDS011;65232;48.358;2.122;2024-02-15T02:30:24;5.47;;;2.05;;
76403;SDS011;65232;48.358;2.122;2024-02-15T02:30:54;3.75;;;1.70;;
76403;SDS011;65232;48.358;2.122;2024-02-15T02:31:20;5.07;;;2.13;;
76403;SDS011;65232;48.358;2.122;2024-02-15T02:31:46;5.28;;;2.20;;
76403;SDS011;65232;48.358;2.122;2024-02-15T02:32:13;3.65;;;2.25;;
76403;SDS011;65232;48.358;2.122;2024-02-15T02:32:39;3.70;;;2.00;;
76403;SDS011;65232;48.358;2.122;2024-02-15T02:33:04;5.93;;;2.33;;
76403;SDS011;65232;48.358;2.122;2024-02-15T02:33:32;5.22;;;2.30;;
76403;SDS011;65232;48.358;2.122;2024-02-15T02:33:58;5.05;;;2.13;;
76403;SDS011;65232;48.358;2.122;2024-02-15T02:34:24;6.28;;;2.42;;
76403;SDS011;65232;48.358;2.122;2024-02-15T02:34:50;7.13;;;2.35;;
76403;SDS011;65232;48.358;2.122;2024-02-15T02:35:15;3.92;;;2.00;;
76403;SDS011;65232;48.358;2.122;2024-02-15T02:35:41;4.50;;;2.70;;
76403;SDS011;65232;48.358;2.122;2024-02-15T02:36:07;4.85;;;2.78;;
76403;SDS011;65232;48.358;2.122;2024-02-15T02:36:35;4.18;;;2.22;;
76403;SDS011;65232;48.358;2.122;2024-02-15T02:37:01;7.40;;;2.70;;
76403;SDS011;65232;48.358;2.122;2024-02-15T02:37:30;4.40;;;2.10;;
76403;SDS011;65232;48.358;2.122;2024-02-15T02:37:56;7.68;;;2.35;;
76403;SDS011;65232;48.358;2.122;2024-02-15T02:38:22;9.05;;;2.63;;
76403;SDS011;65232;48.358;2.122;2024-02-15T02:38:47;6.63;;;2.10;;
76403;SDS011;65232;48.358;2.122;2024-02-15T02:39:15;3.25;;;2.30;;
76403;SDS011;65232;48.358;2.122;2024-02-15T02:39:42;5.35;;;2.15;;
76403;SDS011;65232;48.358;2.122;2024-02-15T02:40:08;3.72;;;2.13;;
76403;SDS011;65232;48.358;2.122;2024-02-15T02:40:34;2.15;;;1.48;;
76403;SDS011;65232;48.358;2.122;2024-02-15T02:41:01;3.37;;;1.90;;
76403;SDS011;65232;48.358;2.122;2024-02-15T02:41:27;4.63;;;1.70;;